Roza A — TCRB7 — position and weather

sailwx.info

Track history (hours):
 
Tides and Currents Weather Stations Pressure Air Temp Water Temp Dewpoint Dewpoint Depression Visibility Wind Speed Wind Dir Waves Ship Positions

Roza A

Last reported at 2015-Apr-17 14:06 UTC. Time now 2015-Apr-19 01:05 UTC.
Position N 39°44' E 025°02'.

Length 169 m; draft 8.5 m.

Type: Ship (hazmat cat A). MMSI: 271001057.

Date/timePositionNaut miles runAvg speedWind from/ knotsBaromVisibWave heightAir tempDewpointWater temp
2015-Apr-17 14:06N 39°44' E 025°02'814.2
2015-Apr-17 13:34N 39°45' E 024°52'1413.9
2015-Apr-17 12:33N 39°46' E 024°34'1413.6
2015-Apr-17 11:31N 39°48' E 024°16'1413.1
2015-Apr-17 10:28N 39°49' E 023°58'88 2.3
2015-Apr-15 20:30N 38°25' E 024°32'2912.1
2015-Apr-15 18:09N 37°57' E 024°38'4211.6
2015-Apr-15 14:32N 37°36' E 023°51'1111.6
2015-Apr-15 13:33N 37°44' E 023°40'1211.8
2015-Apr-15 12:33N 37°55' E 023°36'2 2.0
2015-Apr-15 11:31N 37°57' E 023°35'0 0.0
2015-Apr-15 08:16N 37°57' E 023°35'0 0.0
2015-Apr-15 07:31N 37°57' E 023°35'0 0.0
2015-Apr-15 06:28N 37°57' E 023°35'0 0.0
2015-Apr-15 05:25N 37°57' E 023°35'3 3.7
2015-Apr-15 04:33N 37°54' E 023°36'1 1.0
2015-Apr-15 03:33N 37°53' E 023°37'4 3.9
2015-Apr-15 02:33N 37°50' E 023°39'1212.5
2015-Apr-15 01:33N 37°39' E 023°46'1313.1
2015-Apr-15 00:33N 37°26' E 023°42'1413.6
2015-Apr-14 23:31N 37°13' E 023°34'1413.7
2015-Apr-14 22:30N 37°01' E 023°25'1313.7
2015-Apr-14 21:33N 36°49' E 023°21'13711.4
2015-Apr-14 09:31N 36°45' E 020°30'35812.8
2015-Apr-13 05:31N 39°24' E 013°43'2814.0
2015-Apr-13 03:32N 39°38' E 013°12'26213.5
2015-Apr-12 08:12N 41°42' E 008°08'2914.0
2015-Apr-12 06:09N 41°57' E 007°36'813.9
2015-Apr-12 05:33N 42°02' E 007°26'1413.7
2015-Apr-12 04:33N 42°09' E 007°10'1313.5
2015-Apr-12 03:33N 42°16' E 006°55'1313.4
2015-Apr-12 02:33N 42°23' E 006°40'1413.4
2015-Apr-12 01:33N 42°30' E 006°24'1413.7
2015-Apr-12 00:32N 42°38' E 006°08'1813.1
2015-Apr-11 23:09N 42°48' E 005°47'1113.2
2015-Apr-11 22:20N 42°53' E 005°35'1716.7
2015-Apr-11 21:18N 43°02' E 005°15'1210.5
2015-Apr-11 20:09N 43°10' E 005°02'814.0
2015-Apr-11 19:33N 43°18' E 004°59'9 7.6
2015-Apr-11 18:24N 43°24' E 004°51'0 0.0
2015-Apr-11 17:30N 43°24' E 004°51'0 0.0
2015-Apr-11 16:33N 43°24' E 004°51'0 0.0
2015-Apr-11 15:33N 43°24' E 004°51'0 0.0
2015-Apr-11 14:33N 43°24' E 004°51'0 0.0
2015-Apr-11 13:27N 43°24' E 004°51'0 0.0
2015-Apr-11 12:33N 43°24' E 004°51'0 0.0
2015-Apr-11 11:30N 43°24' E 004°51'0 0.0
2015-Apr-11 10:33N 43°24' E 004°51'0 0.0
2015-Apr-11 09:27N 43°24' E 004°51'0 0.0
2015-Apr-11 08:30N 43°24' E 004°51'0 0.0
2015-Apr-11 07:24N 43°24' E 004°51'0 0.0
2015-Apr-11 06:33N 43°24' E 004°51'0 0.0
2015-Apr-11 05:33N 43°24' E 004°51'0 0.0
2015-Apr-11 04:33N 43°24' E 004°51'0 0.0
2015-Apr-11 03:30N 43°24' E 004°51'0 0.0
2015-Apr-11 02:33N 43°24' E 004°51'0 0.0
2015-Apr-11 01:33N 43°24' E 004°51'0 0.0
2015-Apr-11 00:30N 43°24' E 004°51'0 0.0
2015-Apr-10 23:30N 43°24' E 004°51'6 6.7
2015-Apr-10 22:33N 43°21' E 004°58'6 6.3
2015-Apr-10 21:33N 43°15' E 005°01'10 9.1
2015-Apr-10 20:28N 43°05' E 004°59'1 0.6
2015-Apr-10 19:27N 43°05' E 004°59'0 0.3
2015-Apr-10 18:32N 43°05' E 004°60'1111.4
2015-Apr-10 17:33N 42°58' E 004°47'1413.9
2015-Apr-10 16:33N 42°47' E 004°35'1413.6
2015-Apr-10 15:33N 42°37' E 004°23'1313.4
2015-Apr-10 14:33N 42°27' E 004°11'1413.7
2015-Apr-10 13:33N 42°17' E 003°59'1313.4
2015-Apr-10 12:33N 42°07' E 003°47'1313.3
2015-Apr-10 11:33N 41°56' E 003°35'1313.3
2015-Apr-10 10:33N 41°48' E 003°22'1713.9
2015-Apr-10 09:21N 41°39' E 003°02'1214.0
2015-Apr-10 08:29N 41°33' E 002°49'1513.9
2015-Apr-10 07:23N 41°25' E 002°31'1313.5
2015-Apr-10 06:26N 41°19' E 002°16'5 0.6
2015-Apr-09 22:34N 41°21' E 002°10'0 0.0
2015-Apr-09 21:04N 41°21' E 002°10'0 0.0
2015-Apr-09 19:25N 41°21' E 002°10'0 0.0
2015-Apr-09 17:28N 41°21' E 002°10'6 2.7
2015-Apr-09 15:09N 41°15' E 002°11'33 8.4
2015-Apr-09 11:11N 40°50' E 001°42'16 9.9
2015-Apr-09 09:33N 40°38' E 001°28'1010.2
2015-Apr-09 08:33N 40°32' E 001°17'1010.0
2015-Apr-09 07:33N 40°26' E 001°06'11 9.9
2015-Apr-09 06:29N 40°21' E 000°54'68 3.0
2015-Apr-08 07:33N 39°32' W 000°08'1010.5
2015-Apr-08 06:34N 39°27' W 000°19'0 0.2
2015-Apr-08 05:30N 39°27' W 000°19'0 0.0
2015-Apr-08 04:30N 39°27' W 000°19'0 0.0
2015-Apr-08 03:24N 39°27' W 000°19'0 0.0
2015-Apr-08 02:24N 39°27' W 000°19'0 0.0
2015-Apr-08 01:30N 39°27' W 000°19'0 0.0
2015-Apr-08 00:30N 39°27' W 000°19'0 0.0
2015-Apr-07 23:18N 39°27' W 000°19'0 0.0
2015-Apr-07 22:24N 39°27' W 000°19'0 0.0
2015-Apr-07 21:33N 39°27' W 000°19'0 0.0
2015-Apr-07 20:27N 39°27' W 000°19'0 0.0
2015-Apr-07 19:33N 39°27' W 000°19'0 0.0
2015-Apr-07 18:24N 39°27' W 000°19'0 0.0
2015-Apr-07 17:33N 39°27' W 000°19'0 0.0
2015-Apr-07 16:30N 39°27' W 000°19'0 0.1
2015-Apr-07 15:27N 39°27' W 000°19'0 0.1
2015-Apr-07 14:30N 39°27' W 000°19'  
Track history (hours):
 
Tides and Currents Weather Stations Pressure Air Temp Water Temp Dewpoint Dewpoint Depression Visibility Wind Speed Wind Dir Waves Ship Positions

Roza A

Last reported at 2015-Apr-17 14:06 UTC. Time now 2015-Apr-19 01:05 UTC.
Position N 39°44' E 025°02'.

Length 169 m; draft 8.5 m.

Type: Ship (hazmat cat A). MMSI: 271001057.

Date/timePositionNaut miles runAvg speedWind from/ knotsBaromVisibWave heightAir tempDewpointWater temp
2015-Apr-17 14:06N 39°44' E 025°02'814.2
2015-Apr-17 13:34N 39°45' E 024°52'1413.9
2015-Apr-17 12:33N 39°46' E 024°34'1413.6
2015-Apr-17 11:31N 39°48' E 024°16'1413.1
2015-Apr-17 10:28N 39°49' E 023°58'88 2.3
2015-Apr-15 20:30N 38°25' E 024°32'2912.1
2015-Apr-15 18:09N 37°57' E 024°38'4211.6
2015-Apr-15 14:32N 37°36' E 023°51'1111.6
2015-Apr-15 13:33N 37°44' E 023°40'1211.8
2015-Apr-15 12:33N 37°55' E 023°36'2 2.0
2015-Apr-15 11:31N 37°57' E 023°35'0 0.0
2015-Apr-15 08:16N 37°57' E 023°35'0 0.0
2015-Apr-15 07:31N 37°57' E 023°35'0 0.0
2015-Apr-15 06:28N 37°57' E 023°35'0 0.0
2015-Apr-15 05:25N 37°57' E 023°35'3 3.7
2015-Apr-15 04:33N 37°54' E 023°36'1 1.0
2015-Apr-15 03:33N 37°53' E 023°37'4 3.9
2015-Apr-15 02:33N 37°50' E 023°39'1212.5
2015-Apr-15 01:33N 37°39' E 023°46'1313.1
2015-Apr-15 00:33N 37°26' E 023°42'1413.6
2015-Apr-14 23:31N 37°13' E 023°34'1413.7
2015-Apr-14 22:30N 37°01' E 023°25'1313.7
2015-Apr-14 21:33N 36°49' E 023°21'13711.4
2015-Apr-14 09:31N 36°45' E 020°30'35812.8
2015-Apr-13 05:31N 39°24' E 013°43'2814.0
2015-Apr-13 03:32N 39°38' E 013°12'26213.5
2015-Apr-12 08:12N 41°42' E 008°08'2914.0
2015-Apr-12 06:09N 41°57' E 007°36'813.9
2015-Apr-12 05:33N 42°02' E 007°26'1413.7
2015-Apr-12 04:33N 42°09' E 007°10'1313.5
2015-Apr-12 03:33N 42°16' E 006°55'1313.4
2015-Apr-12 02:33N 42°23' E 006°40'1413.4
2015-Apr-12 01:33N 42°30' E 006°24'1413.7
2015-Apr-12 00:32N 42°38' E 006°08'1813.1
2015-Apr-11 23:09N 42°48' E 005°47'1113.2
2015-Apr-11 22:20N 42°53' E 005°35'1716.7
2015-Apr-11 21:18N 43°02' E 005°15'1210.5
2015-Apr-11 20:09N 43°10' E 005°02'814.0
2015-Apr-11 19:33N 43°18' E 004°59'9 7.6
2015-Apr-11 18:24N 43°24' E 004°51'0 0.0
2015-Apr-11 17:30N 43°24' E 004°51'0 0.0
2015-Apr-11 16:33N 43°24' E 004°51'0 0.0
2015-Apr-11 15:33N 43°24' E 004°51'0 0.0
2015-Apr-11 14:33N 43°24' E 004°51'0 0.0
2015-Apr-11 13:27N 43°24' E 004°51'0 0.0
2015-Apr-11 12:33N 43°24' E 004°51'0 0.0
2015-Apr-11 11:30N 43°24' E 004°51'0 0.0
2015-Apr-11 10:33N 43°24' E 004°51'0 0.0
2015-Apr-11 09:27N 43°24' E 004°51'0 0.0
2015-Apr-11 08:30N 43°24' E 004°51'0 0.0
2015-Apr-11 07:24N 43°24' E 004°51'0 0.0
2015-Apr-11 06:33N 43°24' E 004°51'0 0.0
2015-Apr-11 05:33N 43°24' E 004°51'0 0.0
2015-Apr-11 04:33N 43°24' E 004°51'0 0.0
2015-Apr-11 03:30N 43°24' E 004°51'0 0.0
2015-Apr-11 02:33N 43°24' E 004°51'0 0.0
2015-Apr-11 01:33N 43°24' E 004°51'0 0.0
2015-Apr-11 00:30N 43°24' E 004°51'0 0.0
2015-Apr-10 23:30N 43°24' E 004°51'6 6.7
2015-Apr-10 22:33N 43°21' E 004°58'6 6.3
2015-Apr-10 21:33N 43°15' E 005°01'10 9.1
2015-Apr-10 20:28N 43°05' E 004°59'1 0.6
2015-Apr-10 19:27N 43°05' E 004°59'0 0.3
2015-Apr-10 18:32N 43°05' E 004°60'1111.4
2015-Apr-10 17:33N 42°58' E 004°47'1413.9
2015-Apr-10 16:33N 42°47' E 004°35'1413.6
2015-Apr-10 15:33N 42°37' E 004°23'1313.4
2015-Apr-10 14:33N 42°27' E 004°11'1413.7
2015-Apr-10 13:33N 42°17' E 003°59'1313.4
2015-Apr-10 12:33N 42°07' E 003°47'1313.3
2015-Apr-10 11:33N 41°56' E 003°35'1313.3
2015-Apr-10 10:33N 41°48' E 003°22'1713.9
2015-Apr-10 09:21N 41°39' E 003°02'1214.0
2015-Apr-10 08:29N 41°33' E 002°49'1513.9
2015-Apr-10 07:23N 41°25' E 002°31'1313.5
2015-Apr-10 06:26N 41°19' E 002°16'5 0.6
2015-Apr-09 22:34N 41°21' E 002°10'0 0.0
2015-Apr-09 21:04N 41°21' E 002°10'0 0.0
2015-Apr-09 19:25N 41°21' E 002°10'0 0.0
2015-Apr-09 17:28N 41°21' E 002°10'6 2.7
2015-Apr-09 15:09N 41°15' E 002°11'33 8.4
2015-Apr-09 11:11N 40°50' E 001°42'16 9.9
2015-Apr-09 09:33N 40°38' E 001°28'1010.2
2015-Apr-09 08:33N 40°32' E 001°17'1010.0
2015-Apr-09 07:33N 40°26' E 001°06'11 9.9
2015-Apr-09 06:29N 40°21' E 000°54'68 3.0
2015-Apr-08 07:33N 39°32' W 000°08'1010.5
2015-Apr-08 06:34N 39°27' W 000°19'0 0.2
2015-Apr-08 05:30N 39°27' W 000°19'0 0.0
2015-Apr-08 04:30N 39°27' W 000°19'0 0.0
2015-Apr-08 03:24N 39°27' W 000°19'0 0.0
2015-Apr-08 02:24N 39°27' W 000°19'0 0.0
2015-Apr-08 01:30N 39°27' W 000°19'0 0.0
2015-Apr-08 00:30N 39°27' W 000°19'0 0.0
2015-Apr-07 23:18N 39°27' W 000°19'0 0.0
2015-Apr-07 22:24N 39°27' W 000°19'0 0.0
2015-Apr-07 21:33N 39°27' W 000°19'0 0.0
2015-Apr-07 20:27N 39°27' W 000°19'0 0.0
2015-Apr-07 19:33N 39°27' W 000°19'0 0.0
2015-Apr-07 18:24N 39°27' W 000°19'0 0.0
2015-Apr-07 17:33N 39°27' W 000°19'0 0.0
2015-Apr-07 16:30N 39°27' W 000°19'0 0.1
2015-Apr-07 15:27N 39°27' W 000°19'0 0.1
2015-Apr-07 14:30N 39°27' W 000°19'  

Dump ship's entire track history